Startpagina
METAR-TAF:

METAR-TAF

Vliegvelden :

Internationale luchthaven van Nouakchott

Nouakchott, Mauritanië

breedte: 18-18-36N, lengte: 015-58-11W, hoogte: 3 m

Actueel weer

Dit bericht is 39 minuten geleden gemaakt, om 13:30 UTC
Wind 8 kt uit het noorden
Temperatuur 26°C
Vochtigheid 54%
Druk 1013 hPa
Zicht 10 km of meer
geen wolken onder 1500 m en geen cumulonimbus

METAR: GQNO 191330Z 36008KT CAVOK 26/16 Q1013 NOSIG

Tijdstip: 14:09 (14:09 UTC)

Verwachting

Dit bericht is 3 uur en het 9 minuten geleden gemaakt, om 11:00 UTC
Verwachting geldig van 19 om 12 UTC tot 20 om 18 UTC
Wind 10 kt uit het noordnoordoosten
Zicht: 7000 m
Wijzigt naar
van 19 om 14 UTC tot 19 om 16 UTC
Wind 12 kt uit het noordwesten
Kans 40% :
Tijdelijke
van 20 om 02 UTC tot 20 om 08 UTC
Gebroken wolken op 800 ft
Tijdelijke
van 20 om 09 UTC tot 20 om 14 UTC
Wind 10 kt uit het noordoosten

TAF: GQNO 191100Z 1912/2018 03010KT 7000 NSC BECMG 1914/1916 32012KT PROB40 TEMPO 2002/2008 BKN008 TEMPO 2009/2014 04010KT

Waarnemingen en weersverwachtingen van meer dan 4000 vliegvelden (METAR en TAF).

De beschikbare stations zijn de gele en rode punten op de kaart.

Ga met uw muis naar het station om de naam te zien.

Klik dan om waarnemingen en weersverwachtingen te zien.

kaart wijzigen: klik op de groene knoppen met een zwart kruis om in te zoomen, op de groene knop met een streepje om uit te zoomen of op de groene pijlen voor aangrenzende kaarten.


METAR-TAF: